createdAt,value
2022-12-25T00:01:53.612Z,27.40
2022-12-25T00:04:55.581Z,27.40
2022-12-25T00:07:57.972Z,27.40
2022-12-25T00:11:01.980Z,27.50
2022-12-25T00:14:04.394Z,27.50
2022-12-25T00:17:06.388Z,27.50
2022-12-25T00:20:10.359Z,27.50
2022-12-25T00:23:12.365Z,27.50
2022-12-25T00:26:16.852Z,27.70
2022-12-25T00:29:18.815Z,27.60
2022-12-25T00:32:21.061Z,27.50
2022-12-25T00:35:23.045Z,27.50
2022-12-25T00:38:25.776Z,27.50
2022-12-25T00:41:46.419Z,27.50
2022-12-25T00:44:50.133Z,27.60
2022-12-25T00:47:52.089Z,27.70
2022-12-25T00:50:59.681Z,27.60
2022-12-25T00:54:02.254Z,27.70
2022-12-25T00:57:04.896Z,27.70
2022-12-25T01:00:07.592Z,27.70
2022-12-25T01:03:09.937Z,27.80
2022-12-25T01:06:15.542Z,27.80
2022-12-25T01:09:36.281Z,27.70
2022-12-25T01:12:41.040Z,27.80
2022-12-25T01:15:43.290Z,27.60
2022-12-25T01:18:46.632Z,27.60
2022-12-25T01:21:48.889Z,27.60
2022-12-25T01:24:50.941Z,27.60
2022-12-25T01:27:53.172Z,27.40
2022-12-25T01:30:55.171Z,27.40
2022-12-25T01:33:57.499Z,27.30
2022-12-25T01:36:59.708Z,27.30
2022-12-25T01:40:02.050Z,27.20
2022-12-25T01:43:05.051Z,27.30
2022-12-25T01:46:07.516Z,27.30
2022-12-25T01:49:22.947Z,27.30
2022-12-25T01:52:25.619Z,27.20
2022-12-25T01:55:28.522Z,27.30
2022-12-25T01:58:31.871Z,27.40
2022-12-25T02:01:34.360Z,27.30
2022-12-25T02:04:42.983Z,27.40
2022-12-25T02:07:47.097Z,27.40
2022-12-25T02:10:49.448Z,27.40
2022-12-25T02:13:51.599Z,27.40
2022-12-25T02:17:04.388Z,27.30
2022-12-25T02:20:27.706Z,27.30
2022-12-25T02:24:05.972Z,27.20
2022-12-25T02:27:32.844Z,27.20
2022-12-25T02:30:42.815Z,27.10
2022-12-25T02:34:07.117Z,27.20
2022-12-25T02:37:29.909Z,27.30
2022-12-25T02:40:44.851Z,27.20
2022-12-25T02:44:06.664Z,27.10
2022-12-25T02:47:29.686Z,27.20
2022-12-25T02:50:50.846Z,27.30
2022-12-25T02:54:14.966Z,27.30
2022-12-25T02:57:59.356Z,27.30
2022-12-25T03:01:35.120Z,27.50
2022-12-25T03:04:57.702Z,27.50
2022-12-25T03:08:04.482Z,27.90
2022-12-25T03:11:45.257Z,27.70
2022-12-25T03:15:05.932Z,27.70
2022-12-25T03:18:13.810Z,27.50
2022-12-25T03:21:34.662Z,27.50
2022-12-25T03:24:55.728Z,27.60
2022-12-25T03:27:58.806Z,27.50
2022-12-25T03:31:27.905Z,27.40
2022-12-25T03:35:13.223Z,27.40
2022-12-25T03:38:46.591Z,27.50
2022-12-25T03:42:11.667Z,27.30
2022-12-25T03:46:00.045Z,27.40
2022-12-25T03:49:35.732Z,27.40
2022-12-25T03:52:58.383Z,27.50
2022-12-25T03:56:19.307Z,27.50
2022-12-25T03:59:41.927Z,27.60
2022-12-25T04:03:02.531Z,27.80
2022-12-25T04:06:23.504Z,27.80
2022-12-25T04:09:43.956Z,27.80
2022-12-25T04:13:04.947Z,28.00
2022-12-25T04:16:25.624Z,28.20
2022-12-25T04:19:46.261Z,28.00
2022-12-25T04:23:06.726Z,27.90
2022-12-25T04:26:28.851Z,27.90
2022-12-25T04:29:49.446Z,28.10
2022-12-25T04:33:16.406Z,28.10
2022-12-25T04:36:18.569Z,28.00
2022-12-25T04:39:20.823Z,28.00
2022-12-25T04:42:22.909Z,27.90
2022-12-25T04:45:25.267Z,28.10
2022-12-25T04:48:28.854Z,27.80
2022-12-25T04:51:31.171Z,27.80
2022-12-25T04:54:33.287Z,27.70
2022-12-25T04:57:36.027Z,27.70
2022-12-25T05:00:38.112Z,27.70
2022-12-25T05:03:40.721Z,27.90
2022-12-25T05:06:42.888Z,27.70
2022-12-25T05:09:45.152Z,27.70
2022-12-25T05:12:47.182Z,27.80
2022-12-25T05:15:49.681Z,27.80
2022-12-25T05:18:52.404Z,27.60
2022-12-25T05:21:54.820Z,27.70
2022-12-25T05:24:56.912Z,27.90
2022-12-25T05:27:59.143Z,27.80
2022-12-25T05:31:01.489Z,27.80
2022-12-25T05:34:03.817Z,27.90
2022-12-25T05:37:05.819Z,28.00
2022-12-25T05:40:08.834Z,28.20
2022-12-25T05:43:10.811Z,28.00
2022-12-25T05:46:14.123Z,27.90
2022-12-25T05:49:16.433Z,27.90
2022-12-25T05:52:18.753Z,28.10
2022-12-25T05:55:20.862Z,28.10
2022-12-25T05:58:23.132Z,28.00
2022-12-25T06:01:27.829Z,28.10
2022-12-25T06:04:32.672Z,27.90
2022-12-25T06:07:34.650Z,28.00
2022-12-25T06:10:36.928Z,27.90
2022-12-25T06:13:39.059Z,28.20
2022-12-25T06:16:41.630Z,28.30
2022-12-25T06:19:43.659Z,28.30
2022-12-25T06:22:45.928Z,28.10
2022-12-25T06:25:48.006Z,28.10
2022-12-25T06:28:50.275Z,27.90
2022-12-25T06:31:57.212Z,27.70
2022-12-25T06:34:59.648Z,27.60
2022-12-25T06:38:01.602Z,27.50
2022-12-25T06:41:08.542Z,27.40
2022-12-25T06:44:10.501Z,27.70
2022-12-25T06:47:13.377Z,28.10
2022-12-25T06:50:15.400Z,28.00
2022-12-25T06:53:17.665Z,28.00
2022-12-25T06:56:24.208Z,28.00
2022-12-25T06:59:26.676Z,27.90
2022-12-25T07:02:28.981Z,27.80
2022-12-25T07:05:31.332Z,27.70
2022-12-25T07:08:33.304Z,27.40
2022-12-25T07:11:35.982Z,27.40
2022-12-25T07:14:37.964Z,27.30
2022-12-25T07:17:40.180Z,27.40
2022-12-25T07:20:42.175Z,27.20
2022-12-25T07:23:45.707Z,27.30
2022-12-25T07:26:49.829Z,27.40
2022-12-25T07:29:52.074Z,27.50
2022-12-25T07:32:54.017Z,27.40
2022-12-25T07:35:56.312Z,28.00
2022-12-25T07:38:58.321Z,27.40
2022-12-25T07:42:00.762Z,27.50
2022-12-25T07:45:03.497Z,27.50
2022-12-25T07:48:08.464Z,27.50
2022-12-25T07:51:16.097Z,27.50
2022-12-25T07:54:18.725Z,27.60
2022-12-25T07:57:20.647Z,27.50
2022-12-25T08:00:23.050Z,27.50
2022-12-25T08:03:25.219Z,27.50
2022-12-25T08:06:31.907Z,27.50
2022-12-25T08:09:35.849Z,27.40
2022-12-25T08:12:38.105Z,27.40
2022-12-25T08:15:41.108Z,27.40
2022-12-25T08:18:43.739Z,27.20
2022-12-25T08:21:45.696Z,27.10
2022-12-25T08:24:48.031Z,27.10
2022-12-25T08:27:50.026Z,26.80
2022-12-25T08:30:52.386Z,26.80
2022-12-25T08:33:57.147Z,26.70
2022-12-25T08:36:59.393Z,27.00
2022-12-25T08:40:01.419Z,27.00
2022-12-25T08:43:04.530Z,26.90
2022-12-25T08:46:07.257Z,26.90
2022-12-25T08:49:09.615Z,26.90
2022-12-25T08:52:11.590Z,27.00
2022-12-25T08:55:13.922Z,27.30
2022-12-25T08:58:16.810Z,27.30
2022-12-25T09:01:19.312Z,27.10
2022-12-25T09:04:21.480Z,26.80
2022-12-25T09:07:23.739Z,26.80
2022-12-25T09:10:25.687Z,26.80
2022-12-25T09:13:28.108Z,26.80
2022-12-25T09:16:30.367Z,26.80
2022-12-25T09:19:32.737Z,26.80
2022-12-25T09:22:35.055Z,26.80
2022-12-25T09:25:37.313Z,26.70
2022-12-25T09:28:40.212Z,26.80
2022-12-25T09:31:44.833Z,26.60
2022-12-25T09:34:46.814Z,26.60
2022-12-25T09:37:49.129Z,26.60
2022-12-25T09:41:05.017Z,26.60
2022-12-25T09:44:14.918Z,26.70
2022-12-25T09:47:20.606Z,26.70
2022-12-25T09:50:49.168Z,26.70
2022-12-25T09:54:02.846Z,26.60
2022-12-25T09:57:06.137Z,26.50
2022-12-25T10:00:17.155Z,26.50
2022-12-25T10:03:35.354Z,26.80
2022-12-25T10:06:37.330Z,26.80
2022-12-25T10:10:02.142Z,27.00
2022-12-25T10:13:28.776Z,26.90
